Terminal Aerodrome Forecast
Issued by NWS

Home | Current Version | Previous Version | Text Only | Print | Product List | Glossary On
Versions: 1 2 3 4 5 6 7 8 9 10 11 12
261
FTUS45 KPIH 172331
TAFSUN
TAF
KSUN 172331Z 1800/1824 15008KT P6SM SKC
     FM180400 31010KT P6SM SCT110
     FM181700 30008KT P6SM VCSH SCT025 BKN050 OVC090
     FM182000 12005KT 3SM -SN SCT009 BKN015 OVC024
      AMD LTD TO CLD VIS AND WIND 1806/1814=

USA.gov is the U.S. government's official web portal to all federal, state and local government web resources and services.